Time;durP1;ratioP1;P1;durP2;ratioP2;P2;SDS_P1;SDS_P2;PMS_P1;PMS_P2;Temp;Humidity;BMP_temperature;BMP_pressure;BME280_temperature;BME280_humidity;BME280_pressure;Samples;Min_cycle;Max_cycle;Signal;HPM_P1;HPM_P2
2022/03/01 00:00:04;;;;;;;4.88;3.30;;;;;;;-2.45;71.60;97197.94;5096472;28;20024;-66
2022/03/01 00:02:29;;;;;;;4.60;3.10;;;;;;;-2.49;71.81;97189.34;5096511;28;20408;-67
2022/03/01 00:04:55;;;;;;;5.50;3.97;;;;;;;-2.50;71.79;97186.75;5096468;28;20099;-68
2022/03/01 00:07:20;;;;;;;4.82;3.05;;;;;;;-2.50;71.81;97186.75;5096530;28;20020;-69
2022/03/01 00:09:46;;;;;;;6.10;3.97;;;;;;;-2.50;72.03;97185.03;5096370;28;20351;-68
2022/03/01 00:12:12;;;;;;;8.10;3.38;;;;;;;-2.51;72.11;97182.41;5078044;28;20028;-67
2022/03/01 00:14:37;;;;;;;5.07;3.60;;;;;;;-2.57;72.36;97183.16;5096396;28;20020;-69
2022/03/01 00:17:03;;;;;;;5.75;3.70;;;;;;;-2.55;72.44;97182.38;5096227;28;20054;-69
2022/03/01 00:19:29;;;;;;;4.85;4.00;;;;;;;-2.49;72.21;97180.78;5096091;28;20085;-69
2022/03/01 00:21:56;;;;;;;4.32;3.92;;;;;;;-2.47;72.38;97179.13;5096111;28;20048;-67
2022/03/01 00:24:22;;;;;;;5.85;4.53;;;;;;;-2.43;72.12;97168.13;5096164;28;20063;-66
2022/03/01 00:26:47;;;;;;;5.75;3.92;;;;;;;-2.40;72.12;97168.19;5096112;28;20051;-69
2022/03/01 00:29:13;;;;;;;6.00;3.72;;;;;;;-2.43;72.18;97170.69;5096099;28;20065;-69
2022/03/01 00:31:39;;;;;;;4.28;3.65;;;;;;;-2.39;72.07;97161.34;5096017;28;20031;-69
2022/03/01 00:34:04;;;;;;;5.10;3.83;;;;;;;-2.37;72.04;97164.81;5095898;28;20024;-66
2022/03/01 00:36:31;;;;;;;6.90;4.38;;;;;;;-2.36;72.03;97162.28;5095840;28;20089;-68
2022/03/01 00:38:56;;;;;;;7.63;3.97;;;;;;;-2.35;71.92;97160.59;5095567;28;20462;-68
2022/03/01 00:41:22;;;;;;;8.90;4.43;;;;;;;-2.40;71.88;97170.75;5095572;28;20024;-66
2022/03/01 00:43:47;;;;;;;5.40;4.28;;;;;;;-2.38;71.99;97169.06;5095769;28;20024;-66
2022/03/01 00:46:13;;;;;;;6.00;4.13;;;;;;;-2.38;71.90;97166.50;5095606;28;20024;-67
2022/03/01 00:48:39;;;;;;;4.90;4.20;;;;;;;-2.38;72.01;97169.06;5095577;28;20032;-68
2022/03/01 00:51:04;;;;;;;7.13;4.55;;;;;;;-2.36;71.76;97158.84;5095532;28;20016;-68
2022/03/01 00:53:30;;;;;;;5.93;3.92;;;;;;;-2.41;71.82;97153.63;5095446;28;20442;-68
2022/03/01 00:55:55;;;;;;;5.60;4.00;;;;;;;-2.43;71.86;97155.31;5095586;28;20036;-67
2022/03/01 00:58:21;;;;;;;6.95;4.80;;;;;;;-2.51;72.09;97144.88;5095347;28;20498;-66
2022/03/01 01:00:47;;;;;;;6.15;4.15;;;;;;;-2.54;71.91;97139.66;5077260;28;20416;-66
2022/03/01 01:03:12;;;;;;;7.00;4.38;;;;;;;-2.55;72.20;97141.38;5095377;28;20522;-66
2022/03/01 01:05:38;;;;;;;5.80;4.40;;;;;;;-2.56;71.91;97144.75;5095312;28;20387;-66
2022/03/01 01:08:04;;;;;;;6.28;4.00;;;;;;;-2.60;72.32;97145.50;5095303;28;20144;-68
2022/03/01 01:10:29;;;;;;;6.22;4.45;;;;;;;-2.61;72.41;97148.91;5095266;28;20028;-67
2022/03/01 01:12:55;;;;;;;6.80;4.63;;;;;;;-2.62;72.66;97139.47;5095320;28;20016;-66
2022/03/01 01:15:21;;;;;;;7.18;4.80;;;;;;;-2.62;72.85;97138.63;5095150;28;20468;-70
2022/03/01 01:17:46;;;;;;;7.22;4.68;;;;;;;-2.64;72.85;97138.59;5095129;28;20099;-66
2022/03/01 01:20:14;;;;;;;7.72;5.40;;;;;;;-2.63;72.58;97129.19;5094765;28;20054;-67
2022/03/01 01:22:39;;;;;;;7.47;5.30;;;;;;;-2.70;72.71;97130.75;5095087;28;20083;-67
2022/03/01 01:25:20;;;;;;;6.82;5.00;;;;;;;-2.80;73.12;97129.69;5094935;28;20020;-67
2022/03/01 01:27:52;;;;;;;7.40;5.40;;;;;;;-2.84;73.34;97121.03;5095015;28;20385;-69
2022/03/01 01:30:21;;;;;;;7.20;4.40;;;;;;;-2.88;73.63;97131.16;5094925;28;20024;-67
2022/03/01 01:32:48;;;;;;;6.30;4.72;;;;;;;-2.86;73.51;97126.97;5094738;28;20020;-67
2022/03/01 01:35:15;;;;;;;11.70;4.93;;;;;;;-2.87;74.04;97122.66;5094704;28;20045;-68
2022/03/01 01:37:41;;;;;;;7.78;4.78;;;;;;;-2.92;74.48;97132.81;5094628;28;20077;-68
2022/03/01 01:40:10;;;;;;;6.95;4.90;;;;;;;-2.89;74.50;97121.75;5094497;28;20024;-69
2022/03/01 01:42:36;;;;;;;6.05;5.00;;;;;;;-2.90;74.58;97118.31;5094659;28;20424;-69
2022/03/01 01:45:03;;;;;;;6.72;5.03;;;;;;;-2.93;75.08;97123.38;5094671;28;20024;-67
2022/03/01 01:47:28;;;;;;;6.63;5.00;;;;;;;-2.89;75.68;97117.47;5094481;28;20024;-67
2022/03/01 01:49:54;;;;;;;15.40;5.88;;;;;;;-2.82;75.65;97118.50;5094379;28;20470;-68
2022/03/01 01:52:20;;;;;;;7.75;5.38;;;;;;;-2.67;75.45;97106.09;5093507;28;20028;-67
2022/03/01 01:54:45;;;;;;;5.70;4.50;;;;;;;-2.56;74.54;97108.88;5094452;28;20023;-69
2022/03/01 01:57:15;;;;;;;6.78;5.07;;;;;;;-2.52;74.74;97114.94;5094393;28;20376;-67
2022/03/01 01:59:41;;;;;;;6.53;5.10;;;;;;;-2.43;74.21;97112.59;5094116;28;20119;-70
2022/03/01 02:02:10;;;;;;;5.97;4.60;;;;;;;-2.39;73.79;97113.53;5094231;28;20129;-67
2022/03/01 02:04:35;;;;;;;7.65;5.20;;;;;;;-2.38;73.77;97110.13;5094260;28;20030;-66
2022/03/01 02:07:01;;;;;;;5.53;4.53;;;;;;;-2.28;73.52;97103.53;5094113;28;20091;-68
2022/03/01 02:09:27;;;;;;;6.05;4.30;;;;;;;-2.21;73.37;97099.38;5094161;28;20024;-67
2022/03/01 02:11:52;;;;;;;8.00;4.78;;;;;;;-2.16;73.24;97100.34;5094048;28;20055;-68
2022/03/01 02:14:18;;;;;;;7.60;4.80;;;;;;;-2.12;72.83;97102.16;5094000;28;20016;-67
2022/03/01 02:16:43;;;;;;;7.20;5.35;;;;;;;-2.10;72.86;97110.75;5094081;28;20346;-68
2022/03/01 02:19:12;;;;;;;6.53;4.75;;;;;;;-2.13;73.16;97105.56;5094011;28;20025;-70
2022/03/01 02:21:49;;;;;;;6.90;5.00;;;;;;;-2.10;72.78;97100.50;5093685;28;20044;-70
2022/03/01 02:24:17;;;;;;;6.07;4.68;;;;;;;-2.06;72.78;97099.72;5093921;28;20457;-68
2022/03/01 02:26:42;;;;;;;6.63;4.93;;;;;;;-2.05;72.65;97098.88;5093804;28;20027;-68
2022/03/01 02:29:08;;;;;;;6.95;4.63;;;;;;;-1.96;72.38;97087.09;5093709;28;20385;-69
2022/03/01 02:31:34;;;;;;;6.68;4.53;;;;;;;-1.92;72.12;97087.16;5093795;28;20034;-67
2022/03/01 02:34:00;;;;;;;6.22;4.35;;;;;;;-1.92;72.22;97089.72;5093691;28;20020;-69
2022/03/01 02:36:27;;;;;;;7.30;4.65;;;;;;;-1.89;71.83;97086.38;5093577;28;20017;-67
2022/03/01 02:38:53;;;;;;;6.53;5.00;;;;;;;-1.91;71.83;97083.78;5093445;28;20473;-68
2022/03/01 02:41:18;;;;;;;6.05;4.38;;;;;;;-1.92;71.81;97083.75;5093525;28;20099;-66
2022/03/01 02:43:44;;;;;;;5.13;4.07;;;;;;;-1.84;71.55;97078.78;5093496;28;20033;-69
2022/03/01 02:46:09;;;;;;;7.03;4.38;;;;;;;-1.94;71.65;97070.88;5093497;28;20016;-66
2022/03/01 02:48:35;;;;;;;6.35;4.70;;;;;;;-1.87;71.82;97071.00;5093449;28;20028;-70
2022/03/01 02:51:00;;;;;;;6.78;4.88;;;;;;;-1.83;71.40;97077.94;5093401;28;20024;-69
2022/03/01 02:53:26;;;;;;;7.18;4.50;;;;;;;-1.91;71.88;97070.06;5093401;28;20427;-67
2022/03/01 02:55:52;;;;;;;6.18;4.40;;;;;;;-1.92;71.66;97074.31;5093206;28;20438;-70
2022/03/01 02:58:17;;;;;;;4.57;3.95;;;;;;;-1.99;71.88;97076.75;5093137;28;20384;-68
2022/03/01 03:00:48;;;;;;;5.35;4.07;;;;;;;-1.99;71.78;97063.94;5093209;28;20214;-68
2022/03/01 03:03:13;;;;;;;;;;;;;;;-2.03;72.27;97065.56;5093553;28;20508;-69
2022/03/01 03:05:39;;;;;;;5.35;4.35;;;;;;;-2.03;72.34;97071.56;5093356;28;19912;-68
2022/03/01 03:08:05;;;;;;;8.25;4.32;;;;;;;-1.97;72.01;97075.06;5093134;28;20389;-69
2022/03/01 03:10:33;;;;;;;5.70;4.43;;;;;;;-2.01;72.03;97063.91;5093106;28;20028;-70
2022/03/01 03:12:59;;;;;;;5.65;4.15;;;;;;;-1.97;71.85;97070.81;5093089;28;20054;-68
2022/03/01 03:15:25;;;;;;;4.72;4.18;;;;;;;-2.03;72.06;97071.56;5093040;28;20016;-69
2022/03/01 03:17:51;;;;;;;5.60;4.65;;;;;;;-2.05;72.20;97075.78;5093162;28;20504;-70
2022/03/01 03:20:16;;;;;;;6.20;4.65;;;;;;;-2.02;72.02;97072.41;5092803;28;20052;-68
2022/03/01 03:22:42;;;;;;;6.22;4.95;;;;;;;-2.04;72.12;97074.94;5093199;28;20046;-67
2022/03/01 03:25:08;;;;;;;7.53;5.07;;;;;;;-2.13;72.31;97076.47;5093077;28;20027;-67
2022/03/01 03:27:34;;;;;;;6.40;4.65;;;;;;;-2.05;72.18;97080.91;5092997;28;20082;-67
2022/03/01 03:29:59;;;;;;;4.90;4.03;;;;;;;-2.06;71.80;97081.75;5092993;28;20028;-69
2022/03/01 03:32:25;;;;;;;5.10;4.25;;;;;;;-2.18;71.66;97082.38;5093004;28;20063;-69
2022/03/01 03:34:50;;;;;;;4.80;3.72;;;;;;;-2.32;72.09;97073.53;5092930;28;20103;-66
2022/03/01 03:37:16;;;;;;;5.68;4.30;;;;;;;-2.48;73.04;97070.63;5092907;28;20016;-69
2022/03/01 03:39:41;;;;;;;4.95;4.00;;;;;;;-2.54;73.35;97065.34;5092759;28;20355;-66
2022/03/01 03:42:07;;;;;;;6.30;4.63;;;;;;;-2.55;73.44;97063.63;5092774;28;20024;-67
2022/03/01 03:44:32;;;;;;;11.45;4.65;;;;;;;-2.63;73.50;97063.44;5092932;28;20478;-67
2022/03/01 03:46:58;;;;;;;5.15;4.13;;;;;;;-2.64;73.79;97058.28;5092928;28;20024;-70
2022/03/01 03:49:24;;;;;;;7.47;5.10;;;;;;;-2.56;73.84;97056.78;5092740;28;20091;-68
2022/03/01 03:51:50;;;;;;;5.80;4.85;;;;;;;-2.65;72.90;97054.84;5092723;28;20016;-68
2022/03/01 03:54:15;;;;;;;5.28;4.30;;;;;;;-2.84;73.72;97054.44;5092647;28;20031;-68
2022/03/01 03:56:41;;;;;;;6.20;4.97;;;;;;;-2.89;74.50;97050.91;5092956;28;20028;-66
2022/03/01 03:59:07;;;;;;;5.70;4.45;;;;;;;-2.88;74.02;97047.53;5092723;28;20090;-67
2022/03/01 04:01:34;;;;;;;6.10;4.32;;;;;;;-2.92;74.40;97058.53;5092581;28;20043;-67
2022/03/01 04:04:00;;;;;;;7.10;4.50;;;;;;;-2.98;74.39;97045.59;5092607;28;20024;-68
2022/03/01 04:06:27;;;;;;;5.75;4.45;;;;;;;-2.98;75.11;97055.81;5092609;28;20026;-69
2022/03/01 04:08:52;;;;;;;5.70;4.32;;;;;;;-2.99;74.99;97046.38;5092639;28;20035;-67
2022/03/01 04:11:18;;;;;;;6.45;4.22;;;;;;;-2.97;74.73;97048.19;5092614;28;20028;-69
2022/03/01 04:13:43;;;;;;;6.97;4.80;;;;;;;-2.85;74.67;97047.59;5092580;28;20428;-68
2022/03/01 04:16:09;;;;;;;6.07;4.25;;;;;;;-2.83;74.31;97056.16;5095632;28;20055;-67
2022/03/01 04:18:35;;;;;;;6.32;5.35;;;;;;;-2.81;74.67;97051.97;5096127;28;20094;-67
2022/03/01 04:21:01;;;;;;;7.50;4.88;;;;;;;-2.74;74.64;97058.06;5095949;28;20075;-69
2022/03/01 04:23:27;;;;;;;7.25;5.43;;;;;;;-2.64;74.36;97059.16;5096195;28;20035;-66
2022/03/01 04:25:53;;;;;;;6.60;4.65;;;;;;;-2.60;74.34;97060.09;5096075;28;20028;-69
2022/03/01 04:28:19;;;;;;;6.80;5.43;;;;;;;-2.51;74.12;97059.41;5096023;28;20462;-67
2022/03/01 04:30:45;;;;;;;7.13;5.40;;;;;;;-2.45;74.06;97060.44;5096149;28;20020;-67
2022/03/01 04:33:11;;;;;;;7.80;5.15;;;;;;;-2.46;73.72;97057.84;5096004;28;20373;-68
2022/03/01 04:35:36;;;;;;;6.13;5.07;;;;;;;-2.43;73.93;97058.78;5095906;28;20017;-70
2022/03/01 04:38:02;;;;;;;7.60;5.63;;;;;;;-2.39;73.72;97059.69;5095777;28;20023;-66
2022/03/01 04:40:28;;;;;;;5.95;5.05;;;;;;;-2.34;73.40;97060.69;5095831;28;20035;-68
2022/03/01 04:42:53;;;;;;;6.57;5.32;;;;;;;-2.34;73.42;97068.38;5095844;28;20497;-68
2022/03/01 04:45:19;;;;;;;9.40;5.07;;;;;;;-2.30;73.20;97066.72;5095799;28;20016;-68
2022/03/01 04:47:45;;;;;;;6.03;5.13;;;;;;;-2.33;72.99;97064.97;5095835;28;20113;-68
2022/03/01 04:50:12;;;;;;;7.88;5.47;;;;;;;-2.33;73.30;97067.53;5095668;28;20052;-67
2022/03/01 04:52:38;;;;;;;8.45;5.57;;;;;;;-2.30;73.24;97065.03;5095480;28;20023;-67
2022/03/01 04:55:04;;;;;;;6.72;5.15;;;;;;;-2.27;73.45;97071.91;5095530;28;20020;-69
2022/03/01 04:57:30;;;;;;;9.63;5.90;;;;;;;-2.28;73.19;97071.03;5077657;28;20093;-66
2022/03/01 04:59:55;;;;;;;8.27;6.05;;;;;;;-2.20;72.95;97076.34;5095319;28;20027;-67
2022/03/01 05:02:21;;;;;;;6.88;6.00;;;;;;;-2.28;73.12;97073.59;5095506;28;20046;-69
2022/03/01 05:04:46;;;;;;;8.38;6.40;;;;;;;-2.27;73.12;97069.34;5095464;28;20052;-71
2022/03/01 05:07:12;;;;;;;10.85;6.93;;;;;;;-2.20;73.29;97078.06;5095239;28;20031;-66
2022/03/01 05:09:38;;;;;;;8.98;6.50;;;;;;;-2.17;73.16;97070.41;5095255;28;20095;-66
2022/03/01 05:12:03;;;;;;;10.77;6.63;;;;;;;-2.17;73.10;97072.97;5095219;28;20523;-66
2022/03/01 05:14:29;;;;;;;9.35;6.45;;;;;;;-2.14;73.19;97072.19;5095208;28;20402;-67
2022/03/01 05:16:55;;;;;;;10.50;6.93;;;;;;;-2.11;73.14;97064.56;5095061;28;20028;-68
2022/03/01 05:19:20;;;;;;;8.10;6.47;;;;;;;-2.06;73.04;97078.31;5095123;28;20028;-67
2022/03/01 05:21:46;;;;;;;10.52;7.00;;;;;;;-1.93;72.87;97079.44;5094895;28;20135;-68
2022/03/01 05:24:11;;;;;;;9.52;6.68;;;;;;;-1.79;72.53;97087.41;5095038;28;20021;-68
2022/03/01 05:26:37;;;;;;;8.18;6.22;;;;;;;-1.65;71.98;97096.22;5093745;28;20025;-69
2022/03/01 05:29:04;;;;;;;10.15;6.30;;;;;;;-1.67;71.61;97095.34;5094858;28;20097;-66
2022/03/01 05:31:30;;;;;;;8.90;6.05;;;;;;;-1.57;71.55;97098.94;5094822;28;20016;-69
2022/03/01 05:33:56;;;;;;;10.13;6.60;;;;;;;-1.57;71.64;97111.78;5094804;28;20074;-67
2022/03/01 05:36:21;;;;;;;10.10;6.90;;;;;;;-1.54;71.51;97111.84;5094807;28;20470;-66
2022/03/01 05:38:47;;;;;;;9.77;7.20;;;;;;;-1.48;71.48;97107.69;5094544;28;20066;-70
2022/03/01 05:41:12;;;;;;;8.98;7.05;;;;;;;-0.97;71.34;97118.00;5094671;28;20028;-69
2022/03/01 05:43:38;;;;;;;8.82;6.40;;;;;;;-0.55;69.48;97119.53;5094652;28;20024;-69
2022/03/01 05:46:05;;;;;;;7.30;6.15;;;;;;;-0.33;69.10;97124.13;5094628;28;20031;-68
2022/03/01 05:48:31;;;;;;;7.75;6.65;;;;;;;-0.12;67.88;97123.53;5094490;28;20024;-68
2022/03/01 05:50:57;;;;;;;6.35;5.38;;;;;;;0.29;67.27;97118.91;5094478;28;20020;-67
2022/03/01 05:53:23;;;;;;;7.35;5.75;;;;;;;0.70;65.67;97120.25;5076315;28;20381;-66
2022/03/01 05:55:50;;;;;;;6.47;5.00;;;;;;;1.28;64.22;97123.34;5094585;28;20049;-65
2022/03/01 05:58:16;;;;;;;7.50;5.45;;;;;;;1.87;63.15;97128.94;5094392;28;20024;-66
2022/03/01 06:00:42;;;;;;;6.55;5.45;;;;;;;2.98;59.39;97127.63;5094217;28;20103;-66
2022/03/01 06:03:07;;;;;;;5.78;5.25;;;;;;;3.18;56.15;97131.97;5094150;28;20015;-69
2022/03/01 06:05:35;;;;;;;7.70;5.90;;;;;;;3.28;57.59;97130.25;5094194;28;20016;-69
2022/03/01 06:08:02;;;;;;;6.03;4.80;;;;;;;4.45;55.04;97134.38;5094288;28;20032;-68
2022/03/01 06:10:27;;;;;;;5.97;4.88;;;;;;;5.09;52.56;97139.25;5094272;28;20477;-67
2022/03/01 06:12:53;;;;;;;7.38;4.90;;;;;;;4.65;51.42;97140.34;5094166;28;20027;-68
2022/03/01 06:15:19;;;;;;;6.47;5.30;;;;;;;4.73;52.04;97140.28;5094110;28;20380;-69
2022/03/01 06:17:45;;;;;;;6.30;4.72;;;;;;;4.59;52.32;97136.91;5093978;28;20028;-65
2022/03/01 06:20:11;;;;;;;7.53;6.00;;;;;;;4.13;52.93;97143.97;5093628;28;20040;-67
2022/03/01 06:22:37;;;;;;;6.55;5.25;;;;;;;3.22;55.00;97135.44;5093852;28;20024;-65
2022/03/01 06:25:04;;;;;;;6.47;5.40;;;;;;;2.43;57.94;97143.84;5093797;28;20023;-65
2022/03/01 06:27:29;;;;;;;7.28;5.93;;;;;;;2.16;58.89;97146.31;5093899;28;20031;-68
2022/03/01 06:29:55;;;;;;;9.30;5.80;;;;;;;2.46;58.31;97159.34;5093818;28;20351;-68
2022/03/01 06:32:21;;;;;;;8.18;5.60;;;;;;;3.00;57.01;97138.84;5093744;28;20060;-66
2022/03/01 06:34:46;;;;;;;7.03;5.75;;;;;;;4.21;54.98;97144.81;5093682;28;20020;-67
2022/03/01 06:37:15;;;;;;;8.23;5.82;;;;;;;5.62;50.42;97139.69;5093288;28;20446;-67
2022/03/01 06:39:42;;;;;;;9.52;6.07;;;;;;;6.42;47.71;97149.34;5093475;28;20035;-68
2022/03/01 06:42:09;;;;;;;7.97;5.63;;;;;;;5.86;48.24;97144.66;5093520;28;20095;-67
2022/03/01 06:44:35;;;;;;;8.43;6.32;;;;;;;5.91;48.64;97140.31;5093536;28;20030;-68
2022/03/01 06:47:00;;;;;;;6.53;5.43;;;;;;;6.93;45.81;97146.06;5093626;28;20063;-68
2022/03/01 06:49:26;;;;;;;7.10;5.97;;;;;;;7.12;45.38;97155.38;5093555;28;20504;-67
2022/03/01 06:51:52;;;;;;;6.53;5.25;;;;;;;6.50;45.94;97157.88;5093390;28;20059;-65
2022/03/01 06:54:18;;;;;;;7.65;6.03;;;;;;;5.06;48.59;97155.69;5093346;28;20044;-68
2022/03/01 06:56:46;;;;;;;7.28;6.20;;;;;;;4.44;51.53;97159.44;5093329;28;20031;-68
2022/03/01 06:59:13;;;;;;;8.00;6.50;;;;;;;3.91;52.53;97160.41;5093142;28;20027;-65
2022/03/01 07:01:39;;;;;;;7.85;6.38;;;;;;;3.20;53.40;97166.47;5093247;28;20017;-69
2022/03/01 07:04:05;;;;;;;7.80;6.20;;;;;;;2.95;55.27;97168.97;5093221;28;20043;-66
2022/03/01 07:06:30;;;;;;;8.27;6.55;;;;;;;2.53;55.59;97167.13;5093250;28;20076;-67
2022/03/01 07:08:56;;;;;;;10.60;6.72;;;;;;;2.20;57.07;97160.09;5093264;28;20024;-66
2022/03/01 07:11:22;;;;;;;7.85;5.80;;;;;;;1.87;56.78;97155.59;5093204;28;20024;-66
2022/03/01 07:13:48;;;;;;;7.43;5.60;;;;;;;1.68;56.98;97162.34;5093116;28;20021;-67
2022/03/01 07:16:14;;;;;;;7.28;5.60;;;;;;;1.42;59.05;97165.59;5093026;28;20020;-68
2022/03/01 07:18:41;;;;;;;8.05;6.20;;;;;;;1.31;58.59;97162.06;5092989;28;20433;-68
2022/03/01 07:21:07;;;;;;;7.85;5.65;;;;;;;1.28;58.12;97172.34;5092814;28;20105;-68
2022/03/01 07:23:32;;;;;;;7.70;5.50;;;;;;;1.26;58.98;97173.19;5093150;28;20351;-67
2022/03/01 07:25:58;;;;;;;7.45;6.07;;;;;;;1.31;58.50;97180.09;5093028;28;20024;-65
2022/03/01 07:28:23;;;;;;;7.15;5.65;;;;;;;1.21;58.69;97184.31;5092990;28;20024;-66
2022/03/01 07:30:49;;;;;;;8.05;6.18;;;;;;;1.16;58.01;97189.41;5093105;28;20020;-67
2022/03/01 07:33:15;;;;;;;7.25;5.68;;;;;;;1.09;58.74;97182.47;5093036;28;20028;-67
2022/03/01 07:35:40;;;;;;;7.47;5.40;;;;;;;1.02;58.22;97189.28;5093004;28;20170;-68
2022/03/01 07:38:06;;;;;;;8.25;5.55;;;;;;;0.83;59.02;97189.09;5092875;28;20032;-66
2022/03/01 07:40:31;;;;;;;9.55;6.20;;;;;;;0.81;60.75;97187.34;5092764;28;20028;-68
2022/03/01 07:42:57;;;;;;;8.35;5.30;;;;;;;0.79;59.28;97183.88;5092858;28;20024;-67
2022/03/01 07:45:23;;;;;;;9.82;6.22;;;;;;;0.61;59.17;97182.81;5092880;28;20035;-68
2022/03/01 07:47:48;;;;;;;8.43;6.40;;;;;;;0.41;59.69;97175.72;5092801;28;20474;-66
2022/03/01 07:50:14;;;;;;;8.20;5.93;;;;;;;0.34;59.98;97186.78;5094693;28;20073;-69
2022/03/01 07:52:40;;;;;;;8.60;6.07;;;;;;;0.35;61.27;97186.81;5096782;28;20024;-68
2022/03/01 07:55:06;;;;;;;8.50;6.38;;;;;;;0.35;60.79;97191.94;5096735;28;20027;-68
2022/03/01 07:57:32;;;;;;;7.50;5.63;;;;;;;0.44;60.43;97200.63;5096702;28;20028;-67
2022/03/01 07:59:58;;;;;;;10.40;6.05;;;;;;;0.45;59.54;97190.34;5096638;28;20032;-67
2022/03/01 08:02:24;;;;;;;6.53;5.82;;;;;;;0.46;60.26;97198.94;5096528;28;20020;-68
2022/03/01 08:04:49;;;;;;;11.45;7.53;;;;;;;0.48;60.75;97195.53;5096537;28;20027;-69
2022/03/01 08:07:15;;;;;;;7.90;5.65;;;;;;;0.60;60.87;97196.56;5096475;28;20500;-66
2022/03/01 08:09:41;;;;;;;8.25;6.68;;;;;;;0.73;60.95;97195.81;5078359;28;20089;-66
2022/03/01 08:12:08;;;;;;;9.02;6.32;;;;;;;0.87;59.64;97201.16;5096449;28;20023;-67
2022/03/01 08:14:35;;;;;;;5.20;4.68;;;;;;;0.86;59.57;97193.41;5096387;28;20036;-65
2022/03/01 08:17:02;;;;;;;9.10;5.93;;;;;;;0.92;59.10;97195.19;5096392;28;20056;-66
2022/03/01 08:19:29;;;;;;;9.93;6.13;;;;;;;0.90;58.51;97194.31;5096190;28;20098;-67
2022/03/01 08:21:54;;;;;;;7.60;5.43;;;;;;;0.82;59.23;97195.09;5096048;28;20040;-65
2022/03/01 08:24:20;;;;;;;6.93;5.10;;;;;;;0.77;59.33;97198.44;5096146;28;20016;-68
2022/03/01 08:26:46;;;;;;;7.22;5.43;;;;;;;0.74;58.01;97191.56;5096166;28;20048;-68
2022/03/01 08:29:12;;;;;;;7.80;5.20;;;;;;;0.94;58.87;97191.78;5095963;28;20052;-66
2022/03/01 08:31:41;;;;;;;8.48;5.78;;;;;;;1.11;58.68;97185.91;5096140;28;20016;-66
2022/03/01 08:34:07;;;;;;;6.20;4.95;;;;;;;1.51;58.04;97186.28;5095990;28;20034;-69
2022/03/01 08:36:33;;;;;;;7.57;5.05;;;;;;;2.10;56.17;97191.03;5095931;28;20043;-67
2022/03/01 08:38:59;;;;;;;11.00;5.40;;;;;;;2.60;54.72;97188.69;5095813;28;20541;-66
2022/03/01 08:41:25;;;;;;;7.03;5.07;;;;;;;3.02;52.57;97187.97;5095821;28;20043;-65
2022/03/01 08:43:50;;;;;;;8.93;5.18;;;;;;;2.93;51.39;97185.34;5077766;28;20115;-65
2022/03/01 08:46:16;;;;;;;7.25;5.45;;;;;;;2.75;52.26;97189.63;5095898;28;20111;-66
2022/03/01 08:48:44;;;;;;;7.30;5.15;;;;;;;2.72;52.50;97198.22;5095692;28;20355;-65
2022/03/01 08:51:10;;;;;;;7.70;5.57;;;;;;;2.59;53.98;97199.03;5095848;28;20063;-66
2022/03/01 08:53:36;;;;;;;6.57;5.63;;;;;;;2.36;54.14;97194.59;5095457;28;20458;-67
2022/03/01 08:56:02;;;;;;;7.45;5.47;;;;;;;2.20;54.79;97191.94;5095563;28;20082;-66
2022/03/01 08:58:27;;;;;;;8.20;4.63;;;;;;;2.14;54.07;97191.91;5095445;28;20504;-69
2022/03/01 09:00:53;;;;;;;6.35;4.90;;;;;;;2.17;53.66;97191.06;5095160;28;20021;-67
2022/03/01 09:03:19;;;;;;;5.43;4.93;;;;;;;2.19;53.40;97200.53;5095444;28;20020;-66
2022/03/01 09:05:45;;;;;;;11.88;5.25;;;;;;;2.10;53.89;97203.06;5095412;28;20051;-66
2022/03/01 09:08:13;;;;;;;5.68;5.03;;;;;;;1.98;53.95;97196.09;5095448;28;20048;-68
2022/03/01 09:10:40;;;;;;;8.27;5.68;;;;;;;1.89;55.60;97195.19;5095284;28;20078;-67
2022/03/01 09:13:06;;;;;;;7.53;5.40;;;;;;;1.69;54.88;97196.75;5095229;28;20035;-65
2022/03/01 09:15:32;;;;;;;9.80;5.60;;;;;;;1.55;55.59;97202.66;5095274;28;20028;-67
2022/03/01 09:18:03;;;;;;;5.38;4.65;;;;;;;1.44;55.63;97204.31;5095072;28;20036;-67
2022/03/01 09:20:29;;;;;;;8.43;6.25;;;;;;;1.30;55.94;97201.59;5094840;28;20044;-68
2022/03/01 09:22:56;;;;;;;8.43;6.20;;;;;;;1.33;56.76;97210.22;5095014;28;20016;-67
2022/03/01 09:25:22;;;;;;;7.93;5.80;;;;;;;1.46;56.95;97202.59;5095061;28;20061;-65
2022/03/01 09:27:47;;;;;;;6.65;5.03;;;;;;;1.56;56.43;97200.97;5094924;28;20082;-65
2022/03/01 09:30:14;;;;;;;7.20;5.50;;;;;;;1.46;55.84;97207.75;5094973;28;20521;-69
2022/03/01 09:32:40;;;;;;;7.32;5.32;;;;;;;1.43;56.04;97203.44;5094903;28;20024;-67
2022/03/01 09:35:07;;;;;;;6.53;5.45;;;;;;;1.42;56.53;97198.25;5094881;28;20026;-68
2022/03/01 09:37:33;;;;;;;8.82;5.47;;;;;;;1.50;55.55;97187.16;5094721;28;20545;-66
2022/03/01 09:40:00;;;;;;;6.85;5.55;;;;;;;1.56;55.39;97188.91;5094601;28;20115;-66
2022/03/01 09:42:27;;;;;;;7.55;5.65;;;;;;;1.80;56.81;97194.28;5094777;28;20478;-65
2022/03/01 09:44:56;;;;;;;7.47;5.10;;;;;;;2.02;55.93;97197.88;5094585;28;20020;-65
2022/03/01 09:47:22;;;;;;;7.30;4.93;;;;;;;2.13;54.57;97195.34;5094653;28;20020;-67
2022/03/01 09:49:49;;;;;;;5.55;4.95;;;;;;;2.12;55.02;97194.50;5094571;28;20016;-67
2022/03/01 09:52:16;;;;;;;7.53;5.07;;;;;;;2.21;54.52;97190.22;5094448;28;20027;-66
2022/03/01 09:54:42;;;;;;;5.82;4.68;;;;;;;2.53;53.82;97189.53;5094338;28;20107;-68
2022/03/01 09:57:12;;;;;;;8.80;5.90;;;;;;;2.60;52.96;97193.00;5094414;28;20055;-67
2022/03/01 09:59:38;;;;;;;6.70;5.38;;;;;;;2.82;52.64;97195.66;5094440;28;20077;-66
2022/03/01 10:02:03;;;;;;;6.47;5.55;;;;;;;2.91;52.35;97182.75;5094434;28;20028;-69
2022/03/01 10:04:29;;;;;;;9.90;6.53;;;;;;;3.25;52.22;97189.75;5094302;28;20016;-68
2022/03/01 10:06:55;;;;;;;9.60;6.40;;;;;;;3.43;50.83;97181.13;5094212;28;20474;-66
2022/03/01 10:09:26;;;;;;;7.90;5.55;;;;;;;3.43;51.64;97178.53;5094283;28;20416;-66
2022/03/01 10:11:53;;;;;;;8.18;5.18;;;;;;;3.43;50.35;97173.38;5093716;28;20074;-67
2022/03/01 10:14:28;;;;;;;8.70;5.43;;;;;;;3.36;50.73;97169.06;5093881;28;20115;-67
2022/03/01 10:16:54;;;;;;;6.40;4.93;;;;;;;3.18;51.21;97172.47;5094008;28;20031;-68
2022/03/01 10:19:21;;;;;;;6.40;4.72;;;;;;;3.38;51.24;97168.22;5093939;28;20020;-65
2022/03/01 10:22:02;;;;;;;6.20;5.10;;;;;;;3.35;51.33;97168.22;5093788;28;20044;-65
2022/03/01 10:24:29;;;;;;;7.88;4.53;;;;;;;3.29;50.24;97169.03;5093922;28;20104;-67
2022/03/01 10:27:01;;;;;;;6.78;5.07;;;;;;;3.06;50.54;97171.59;5093904;28;20031;-69
2022/03/01 10:29:28;;;;;;;6.60;5.10;;;;;;;3.01;51.77;97166.41;5093731;28;20036;-68
2022/03/01 10:31:59;;;;;;;7.50;5.10;;;;;;;3.17;52.75;97169.03;5093680;28;20020;-65
2022/03/01 10:34:27;;;;;;;11.45;6.03;;;;;;;3.18;51.70;97164.72;5093691;28;20484;-69
2022/03/01 10:36:53;;;;;;;6.65;5.25;;;;;;;3.29;52.39;97169.03;5093699;28;20614;-65
2022/03/01 10:39:30;;;;;;;6.70;5.15;;;;;;;3.07;51.40;97160.38;5093682;28;20035;-66
2022/03/01 10:41:56;;;;;;;6.43;4.75;;;;;;;2.89;51.60;97158.66;5093552;28;20016;-66
2022/03/01 10:44:25;;;;;;;7.97;5.43;;;;;;;2.73;52.39;97155.13;5093532;28;20077;-68
2022/03/01 10:46:56;;;;;;;7.32;5.38;;;;;;;2.55;53.19;97167.13;5093449;28;20024;-65
2022/03/01 10:49:24;;;;;;;6.55;5.28;;;;;;;2.33;53.57;97168.75;5093594;28;20024;-65
2022/03/01 10:51:54;;;;;;;6.25;5.35;;;;;;;2.33;55.02;97166.19;5093463;28;20473;-68
2022/03/01 10:54:46;;;;;;;5.25;4.30;;;;;;;2.24;54.16;97162.72;5093450;28;20055;-65
2022/03/01 10:57:21;;;;;;;6.22;5.07;;;;;;;2.17;54.87;97158.38;5089465;28;20063;-65
2022/03/01 10:59:48;;;;;;;7.38;5.03;;;;;;;2.23;55.06;97160.97;5093245;28;20417;-68
2022/03/01 11:02:16;;;;;;;5.88;5.13;;;;;;;2.05;55.09;97155.72;5093394;28;20012;-65
2022/03/01 11:04:42;;;;;;;6.57;5.15;;;;;;;1.98;56.23;97152.22;5093235;28;20388;-66
2022/03/01 11:07:10;;;;;;;7.35;5.95;;;;;;;1.79;56.25;97159.84;5093172;28;20386;-66
2022/03/01 11:09:37;;;;;;;7.97;5.88;;;;;;;1.67;56.66;97152.00;5093289;28;20024;-66
2022/03/01 11:12:05;;;;;;;8.77;5.82;;;;;;;1.70;57.30;97147.75;5093213;28;20115;-65
2022/03/01 11:14:39;;;;;;;8.15;5.80;;;;;;;1.70;56.91;97146.88;5093163;28;20045;-66
2022/03/01 11:17:16;;;;;;;8.40;6.40;;;;;;;1.55;57.08;97139.91;5093189;28;20032;-66
2022/03/01 11:20:01;;;;;;;8.23;5.35;;;;;;;1.53;57.91;97141.63;5093032;28;20446;-67
2022/03/01 11:22:32;;;;;;;8.95;5.72;;;;;;;1.62;57.74;97136.50;5093281;28;20067;-66
2022/03/01 11:24:58;;;;;;;6.95;5.30;;;;;;;1.53;57.59;97137.31;5078385;28;20420;-68
2022/03/01 11:27:25;;;;;;;7.10;5.80;;;;;;;1.43;57.99;97127.78;5097446;28;20482;-68
2022/03/01 11:30:03;;;;;;;7.18;5.22;;;;;;;1.32;58.29;97128.56;5097242;28;20470;-67
2022/03/01 11:32:42;;;;;;;8.50;6.35;;;;;;;1.20;59.15;97128.47;5097216;28;20031;-66